createdAt,value
2018-02-13T00:01:56.692Z,7.30
2018-02-13T00:04:26.928Z,6.73
2018-02-13T00:06:55.048Z,7.47
2018-02-13T00:09:25.340Z,7.60
2018-02-13T00:11:53.475Z,6.10
2018-02-13T00:14:21.819Z,7.47
2018-02-13T00:16:49.939Z,6.73
2018-02-13T00:19:19.020Z,6.67
2018-02-13T00:21:47.108Z,6.53
2018-02-13T00:24:15.623Z,6.60
2018-02-13T00:26:43.717Z,6.03
2018-02-13T00:29:12.573Z,6.27
2018-02-13T00:31:40.670Z,7.07
2018-02-13T00:34:09.547Z,6.60
2018-02-13T00:36:37.645Z,6.30
2018-02-13T00:39:06.525Z,6.57
2018-02-13T00:41:35.360Z,7.37
2018-02-13T00:44:03.484Z,6.20
2018-02-13T00:46:32.324Z,5.80
2018-02-13T00:49:00.434Z,6.90
2018-02-13T00:51:28.577Z,6.97
2018-02-13T00:53:56.664Z,6.07
2018-02-13T00:56:24.771Z,5.73
2018-02-13T00:58:52.866Z,5.37
2018-02-13T01:01:20.955Z,5.30
2018-02-13T01:03:49.058Z,5.30
2018-02-13T01:06:17.140Z,5.77
2018-02-13T01:08:45.244Z,5.60
2018-02-13T01:11:14.367Z,5.53
2018-02-13T01:13:42.459Z,5.40
2018-02-13T01:16:10.554Z,5.30
2018-02-13T01:18:38.682Z,5.07
2018-02-13T01:21:06.783Z,5.83
2018-02-13T01:23:34.866Z,5.80
2018-02-13T01:26:02.966Z,5.43
2018-02-13T01:28:31.849Z,5.17
2018-02-13T01:31:00.698Z,5.37
2018-02-13T01:33:28.819Z,5.27
2018-02-13T01:35:57.821Z,5.27
2018-02-13T01:38:25.940Z,6.20
2018-02-13T01:40:54.035Z,5.23
2018-02-13T01:43:22.151Z,5.17
2018-02-13T01:45:50.243Z,5.33
2018-02-13T01:48:18.340Z,4.87
2018-02-13T01:50:46.454Z,5.00
2018-02-13T01:53:14.541Z,5.20
2018-02-13T01:55:42.669Z,5.53
2018-02-13T01:58:10.769Z,4.60
2018-02-13T02:00:39.877Z,4.73
2018-02-13T02:03:07.954Z,4.90
2018-02-13T02:05:36.059Z,6.00
2018-02-13T02:08:04.158Z,6.07
2018-02-13T02:10:32.258Z,5.47
2018-02-13T02:13:00.370Z,5.10
2018-02-13T02:15:28.460Z,4.90
2018-02-13T02:17:56.574Z,4.80
2018-02-13T02:20:25.443Z,6.07
2018-02-13T02:22:55.406Z,5.00
2018-02-13T02:25:23.484Z,5.50
2018-02-13T02:27:51.570Z,5.90
2018-02-13T02:30:19.683Z,5.40
2018-02-13T02:32:48.552Z,4.37
2018-02-13T02:35:16.643Z,4.10
2018-02-13T02:37:44.736Z,4.40
2018-02-13T02:40:12.854Z,5.27
2018-02-13T02:42:58.550Z,4.20
2018-02-13T02:45:26.668Z,5.27
2018-02-13T02:47:54.760Z,5.03
2018-02-13T02:50:22.864Z,5.37
2018-02-13T02:52:50.984Z,4.30
2018-02-13T02:55:19.084Z,4.73
2018-02-13T02:57:47.190Z,4.63
2018-02-13T03:00:15.324Z,4.70
2018-02-13T03:02:43.429Z,4.57
2018-02-13T03:05:11.537Z,4.30
2018-02-13T03:07:39.667Z,3.80
2018-02-13T03:10:07.753Z,4.30
2018-02-13T03:12:35.847Z,3.73
2018-02-13T03:15:04.720Z,4.20
2018-02-13T03:17:32.826Z,4.70
2018-02-13T03:20:00.945Z,4.80
2018-02-13T03:22:29.042Z,3.97
2018-02-13T03:24:57.135Z,4.83
2018-02-13T03:27:25.248Z,3.90
2018-02-13T03:29:53.366Z,5.03
2018-02-13T03:32:22.220Z,4.80
2018-02-13T03:34:52.383Z,4.30
2018-02-13T03:37:21.267Z,4.33
2018-02-13T03:39:50.135Z,3.57
2018-02-13T03:42:18.244Z,4.40
2018-02-13T03:44:46.366Z,5.40
2018-02-13T03:47:14.475Z,4.10
2018-02-13T03:49:42.584Z,4.63
2018-02-13T03:52:10.728Z,4.30
2018-02-13T03:54:39.584Z,4.60
2018-02-13T03:57:07.697Z,4.60
2018-02-13T03:59:35.796Z,4.70
2018-02-13T04:02:03.891Z,3.93
2018-02-13T04:04:31.983Z,4.63
2018-02-13T04:07:00.086Z,5.03
2018-02-13T04:09:28.156Z,4.80
2018-02-13T04:11:56.253Z,4.83
2018-02-13T04:14:24.371Z,4.37
2018-02-13T04:16:52.462Z,3.60
2018-02-13T04:19:20.548Z,4.20
2018-02-13T04:21:48.665Z,4.27
2018-02-13T04:24:16.750Z,4.50
2018-02-13T04:26:44.857Z,4.43
2018-02-13T04:29:12.948Z,5.17
2018-02-13T04:31:41.050Z,4.33
2018-02-13T04:34:09.144Z,4.00
2018-02-13T04:36:37.220Z,5.23
2018-02-13T04:39:05.344Z,4.90
2018-02-13T04:41:33.449Z,6.10
2018-02-13T04:44:01.545Z,4.70
2018-02-13T04:46:29.626Z,4.80
2018-02-13T04:48:57.741Z,4.20
2018-02-13T04:51:25.824Z,4.60
2018-02-13T04:53:53.903Z,5.70
2018-02-13T04:56:22.004Z,4.83
2018-02-13T04:58:50.114Z,4.47
2018-02-13T05:01:18.196Z,4.77
2018-02-13T05:03:46.300Z,5.03
2018-02-13T05:06:14.400Z,5.30
2018-02-13T05:08:42.473Z,4.83
2018-02-13T05:11:10.599Z,5.50
2018-02-13T05:13:38.691Z,5.50
2018-02-13T05:16:11.436Z,5.30
2018-02-13T05:18:39.543Z,4.70
2018-02-13T05:21:08.571Z,5.57
2018-02-13T05:23:37.447Z,4.87
2018-02-13T05:26:05.523Z,5.30
2018-02-13T05:28:33.631Z,6.10
2018-02-13T05:31:01.761Z,6.13
2018-02-13T05:33:29.860Z,4.70
2018-02-13T05:35:57.942Z,5.73
2018-02-13T05:38:26.043Z,6.30
2018-02-13T05:40:54.129Z,5.90
2018-02-13T05:43:22.239Z,6.50
2018-02-13T05:45:50.340Z,5.17
2018-02-13T05:48:18.440Z,5.63
2018-02-13T05:50:46.543Z,5.17
2018-02-13T05:53:14.692Z,5.40
2018-02-13T05:55:42.790Z,6.07
2018-02-13T05:58:10.887Z,5.27
2018-02-13T06:00:39.788Z,5.20
2018-02-13T06:03:07.837Z,6.00
2018-02-13T06:05:36.401Z,5.70
2018-02-13T06:08:04.497Z,6.20
2018-02-13T06:10:32.605Z,5.90
2018-02-13T06:13:00.707Z,5.67
2018-02-13T06:15:28.820Z,5.57
2018-02-13T06:17:56.938Z,5.50
2018-02-13T06:20:25.024Z,6.23
2018-02-13T06:22:53.133Z,5.70
2018-02-13T06:25:21.982Z,6.57
2018-02-13T06:27:50.087Z,5.50
2018-02-13T06:30:18.165Z,5.90
2018-02-13T06:32:47.052Z,7.97
2018-02-13T06:35:15.134Z,6.40
2018-02-13T06:37:43.999Z,5.90
2018-02-13T06:40:13.131Z,6.20
2018-02-13T06:42:41.390Z,6.00
2018-02-13T06:45:09.722Z,6.40
2018-02-13T06:47:38.101Z,6.00
2018-02-13T06:50:07.078Z,5.90
2018-02-13T06:52:35.105Z,6.43
2018-02-13T06:55:03.215Z,5.60
2018-02-13T06:57:31.318Z,5.50
2018-02-13T06:59:59.416Z,5.50
2018-02-13T07:02:27.494Z,7.30
2018-02-13T07:04:55.579Z,6.20
2018-02-13T07:07:23.687Z,5.10
2018-02-13T07:09:51.770Z,5.70
2018-02-13T07:12:19.889Z,5.90
2018-02-13T07:14:48.757Z,5.87
2018-02-13T07:17:20.517Z,5.93
2018-02-13T07:19:48.597Z,6.70
2018-02-13T07:22:16.687Z,6.43
2018-02-13T07:24:45.569Z,6.70
2018-02-13T07:27:13.683Z,7.00
2018-02-13T07:29:41.790Z,7.40
2018-02-13T07:32:09.884Z,7.10
2018-02-13T07:34:38.894Z,7.90
2018-02-13T07:37:06.984Z,7.33
2018-02-13T07:39:35.098Z,6.37
2018-02-13T07:42:03.182Z,6.83
2018-02-13T07:44:31.297Z,6.87
2018-02-13T07:47:00.161Z,6.60
2018-02-13T07:49:28.235Z,7.33
2018-02-13T07:51:57.347Z,7.53
2018-02-13T07:54:26.204Z,6.77
2018-02-13T07:56:54.324Z,7.53
2018-02-13T07:59:22.418Z,7.30
2018-02-13T08:01:50.548Z,7.37
2018-02-13T08:04:19.430Z,8.17
2018-02-13T08:06:48.308Z,8.07
2018-02-13T08:09:16.391Z,8.90
2018-02-13T08:11:44.479Z,7.83
2018-02-13T08:14:13.341Z,8.20
2018-02-13T08:16:41.440Z,7.70
2018-02-13T08:19:10.303Z,8.23
2018-02-13T08:21:38.408Z,8.03
2018-02-13T08:24:07.257Z,8.40
2018-02-13T08:26:35.347Z,8.20
2018-02-13T08:29:03.446Z,8.50
2018-02-13T08:31:31.551Z,7.93
2018-02-13T08:33:59.650Z,8.57
2018-02-13T08:36:27.769Z,9.27
2018-02-13T08:38:55.856Z,8.30
2018-02-13T08:41:23.972Z,8.30
2018-02-13T08:43:52.069Z,8.80
2018-02-13T08:46:20.172Z,9.17
2018-02-13T08:48:48.265Z,9.50
2018-02-13T08:51:16.347Z,8.60
2018-02-13T08:53:44.452Z,9.73
2018-02-13T08:56:12.523Z,8.47
2018-02-13T08:58:41.726Z,8.87
2018-02-13T09:01:10.580Z,8.87
2018-02-13T09:03:38.684Z,8.90
2018-02-13T09:06:07.536Z,8.37
2018-02-13T09:08:35.644Z,8.73
2018-02-13T09:11:04.511Z,9.40
2018-02-13T09:13:32.604Z,10.57
2018-02-13T09:16:00.703Z,8.97
2018-02-13T09:18:28.795Z,10.30
2018-02-13T09:20:56.888Z,9.40
2018-02-13T09:23:24.959Z,9.47
2018-02-13T09:25:53.056Z,10.30
2018-02-13T09:28:21.139Z,9.90
2018-02-13T09:30:49.241Z,10.00
2018-02-13T09:33:17.329Z,10.07
2018-02-13T09:35:45.418Z,10.20
2018-02-13T09:38:13.522Z,9.30
2018-02-13T09:40:41.641Z,9.67
2018-02-13T09:43:09.744Z,9.10
2018-02-13T09:45:37.961Z,9.43
2018-02-13T09:48:06.810Z,8.10
2018-02-13T09:50:34.924Z,9.23
2018-02-13T09:53:03.784Z,10.03
2018-02-13T09:55:31.865Z,9.17
2018-02-13T09:57:59.979Z,9.83
2018-02-13T10:00:28.079Z,8.80
2018-02-13T10:02:56.183Z,8.53
2018-02-13T10:05:24.266Z,8.50
2018-02-13T10:07:52.380Z,8.50
2018-02-13T10:10:20.480Z,9.53
2018-02-13T10:12:48.574Z,11.17
2018-02-13T10:15:16.714Z,10.97
2018-02-13T10:17:44.849Z,9.07
2018-02-13T10:20:12.952Z,9.47
2018-02-13T10:22:41.049Z,8.73
2018-02-13T10:25:09.175Z,8.70
2018-02-13T10:27:37.293Z,7.90
2018-02-13T10:30:05.418Z,8.40
2018-02-13T10:32:33.534Z,9.03
2018-02-13T10:35:02.686Z,8.10
2018-02-13T10:37:31.710Z,8.80
2018-02-13T10:39:59.832Z,7.53
2018-02-13T10:42:28.741Z,7.80
2018-02-13T10:44:56.856Z,8.17
2018-02-13T10:47:25.005Z,7.60
2018-02-13T10:49:53.115Z,7.87
2018-02-13T10:52:21.241Z,7.73
2018-02-13T10:54:49.324Z,8.00
2018-02-13T10:57:17.437Z,7.90
2018-02-13T10:59:45.557Z,7.07
2018-02-13T11:02:19.296Z,7.90
2018-02-13T11:04:47.425Z,7.33
2018-02-13T11:07:16.419Z,7.50
2018-02-13T11:09:49.265Z,6.90
2018-02-13T11:12:17.586Z,7.10
2018-02-13T11:14:46.809Z,7.17
2018-02-13T11:17:16.624Z,7.80
2018-02-13T11:19:46.682Z,9.40
2018-02-13T11:22:14.972Z,9.20
2018-02-13T11:24:44.570Z,6.93
2018-02-13T11:27:13.933Z,6.80
2018-02-13T11:29:43.235Z,7.17
2018-02-13T11:32:16.283Z,7.30
2018-02-13T11:37:27.068Z,7.77
2018-02-13T11:40:01.709Z,5.43
2018-02-13T11:42:36.365Z,6.00
2018-02-13T11:45:07.124Z,4.67
2018-02-13T11:47:39.497Z,4.27
2018-02-13T11:50:10.150Z,2.67
2018-02-13T11:52:38.600Z,2.83
2018-02-13T11:55:09.308Z,2.87
2018-02-13T11:57:39.762Z,2.53
2018-02-13T12:00:11.806Z,2.37
2018-02-13T12:02:42.704Z,2.77
2018-02-13T12:05:16.268Z,2.10
2018-02-13T12:07:48.918Z,2.30
2018-02-13T12:10:21.103Z,2.53
2018-02-13T12:12:50.123Z,3.63
2018-02-13T12:15:22.313Z,3.07
2018-02-13T12:17:52.279Z,2.83
2018-02-13T12:20:21.418Z,2.50
2018-02-13T12:22:50.733Z,2.50
2018-02-13T12:25:31.555Z,2.03
2018-02-13T12:28:00.827Z,2.80
2018-02-13T12:30:30.406Z,2.40
2018-02-13T12:33:00.255Z,2.00
2018-02-13T12:35:28.606Z,2.70
2018-02-13T12:37:59.064Z,1.93
2018-02-13T12:40:30.612Z,2.27
2018-02-13T12:42:58.887Z,2.00
2018-02-13T12:45:28.561Z,2.83
2018-02-13T12:47:57.026Z,3.27
2018-02-13T12:50:26.650Z,2.60
2018-02-13T12:52:54.819Z,1.90
2018-02-13T12:55:25.860Z,2.27
2018-02-13T12:57:54.965Z,2.43
2018-02-13T13:00:23.348Z,1.80
2018-02-13T13:02:51.921Z,2.60
2018-02-13T13:14:22.059Z,2.73
2018-02-13T13:16:51.306Z,2.77
2018-02-13T13:19:19.617Z,2.60
2018-02-13T13:21:48.480Z,2.60
2018-02-13T13:24:17.289Z,2.00
2018-02-13T13:26:46.419Z,2.00
2018-02-13T13:29:15.453Z,2.40
2018-02-13T13:31:47.946Z,2.13
2018-02-13T13:34:17.977Z,2.30
2018-02-13T13:36:49.427Z,2.37
2018-02-13T13:39:18.468Z,1.90
2018-02-13T13:41:48.156Z,2.50
2018-02-13T13:44:17.335Z,2.50
2018-02-13T13:46:48.594Z,2.40
2018-02-13T13:49:16.794Z,1.97
2018-02-13T13:54:47.311Z,1.83
2018-02-13T13:57:17.368Z,3.17
2018-02-13T13:59:46.374Z,2.37
2018-02-13T14:02:17.515Z,2.10
2018-02-13T14:04:49.179Z,2.30
2018-02-13T14:07:17.570Z,2.43
2018-02-13T14:09:47.524Z,2.70
2018-02-13T14:12:16.471Z,2.33
2018-02-13T14:14:51.935Z,2.30
2018-02-13T14:17:25.046Z,2.30
2018-02-13T14:19:54.917Z,3.00
2018-02-13T14:22:25.824Z,2.50
2018-02-13T14:24:54.100Z,2.87
2018-02-13T14:27:22.466Z,3.20
2018-02-13T14:29:50.656Z,3.13
2018-02-13T14:32:20.058Z,2.97
2018-02-13T14:34:48.203Z,3.03
2018-02-13T14:37:19.518Z,3.77
2018-02-13T14:39:47.830Z,4.27
2018-02-13T14:42:16.038Z,2.83
2018-02-13T14:44:45.204Z,3.30
2018-02-13T14:47:13.419Z,4.47
2018-02-13T14:49:41.646Z,2.97
2018-02-13T14:52:09.931Z,3.27
2018-02-13T14:54:39.042Z,5.60
2018-02-13T14:57:07.564Z,3.40
2018-02-13T14:59:36.536Z,2.43
2018-02-13T15:02:04.838Z,3.43
2018-02-13T15:04:33.003Z,2.90
2018-02-13T15:07:01.909Z,3.40
2018-02-13T15:09:30.060Z,3.77
2018-02-13T15:11:58.348Z,3.10
2018-02-13T15:14:26.534Z,3.10
2018-02-13T15:17:00.210Z,3.40
2018-02-13T15:19:30.909Z,3.00
2018-02-13T15:22:00.275Z,2.50
2018-02-13T15:24:28.497Z,3.30
2018-02-13T15:26:56.624Z,2.90
2018-02-13T15:29:24.837Z,2.97
2018-02-13T15:31:53.090Z,2.70
2018-02-13T15:34:21.234Z,3.43
2018-02-13T15:36:49.379Z,3.00
2018-02-13T15:39:17.561Z,3.17
2018-02-13T15:41:45.698Z,3.77
2018-02-13T15:44:14.044Z,3.33
2018-02-13T15:46:42.257Z,3.60
2018-02-13T15:49:10.373Z,3.63
2018-02-13T15:51:39.283Z,2.57
2018-02-13T15:54:07.442Z,3.10
2018-02-13T15:56:35.609Z,2.87
2018-02-13T15:59:04.548Z,3.20
2018-02-13T16:01:32.705Z,2.63
2018-02-13T16:04:00.883Z,3.17
2018-02-13T16:06:29.790Z,3.17
2018-02-13T16:08:57.923Z,2.93
2018-02-13T16:11:26.044Z,3.03
2018-02-13T16:13:57.411Z,2.90
2018-02-13T16:16:25.573Z,2.97
2018-02-13T16:18:53.708Z,2.73
2018-02-13T16:21:21.834Z,3.53
2018-02-13T16:23:49.935Z,3.30
2018-02-13T16:26:18.837Z,3.00
2018-02-13T16:28:47.730Z,2.93
2018-02-13T16:31:16.609Z,2.60
2018-02-13T16:33:45.521Z,2.83
2018-02-13T16:36:13.683Z,3.07
2018-02-13T16:38:41.860Z,3.50
2018-02-13T16:41:10.080Z,3.30
2018-02-13T16:43:38.329Z,2.80
2018-02-13T16:46:06.539Z,3.17
2018-02-13T16:48:34.747Z,3.60
2018-02-13T16:51:03.645Z,3.40
2018-02-13T16:53:32.536Z,3.57
2018-02-13T16:56:00.655Z,2.57
2018-02-13T16:58:29.544Z,3.20
2018-02-13T17:00:57.664Z,3.57
2018-02-13T17:03:25.793Z,4.10
2018-02-13T17:05:53.915Z,3.40
2018-02-13T17:08:22.829Z,3.33
2018-02-13T17:10:50.958Z,3.50
2018-02-13T17:13:19.161Z,3.33
2018-02-13T17:15:48.050Z,3.23
2018-02-13T17:18:16.935Z,3.30
2018-02-13T17:20:45.836Z,3.20
2018-02-13T17:23:14.006Z,3.20
2018-02-13T17:25:42.149Z,3.23
2018-02-13T17:28:11.378Z,3.83
2018-02-13T17:36:49.949Z,4.03
2018-02-13T17:39:26.207Z,4.23
2018-02-13T17:42:00.919Z,4.63
2018-02-13T17:44:36.782Z,3.50
2018-02-13T17:47:09.362Z,5.30
2018-02-13T17:52:19.336Z,6.27
2018-02-13T17:54:56.348Z,4.70
2018-02-13T18:00:40.252Z,4.67
2018-02-13T18:03:14.670Z,4.40
2018-02-13T18:05:42.824Z,4.53
2018-02-13T18:08:10.937Z,5.17
2018-02-13T18:10:39.803Z,5.00
2018-02-13T18:13:52.643Z,4.90
2018-02-13T18:19:18.778Z,8.17
2018-02-13T18:21:48.991Z,10.90
2018-02-13T18:24:17.154Z,7.13
2018-02-13T18:26:45.277Z,4.63
2018-02-13T18:29:13.540Z,4.83
2018-02-13T18:31:41.643Z,4.60
2018-02-13T18:34:09.758Z,4.90
2018-02-13T18:36:37.871Z,4.33
2018-02-13T18:39:05.980Z,4.60
2018-02-13T18:41:34.098Z,4.80
2018-02-13T18:44:02.180Z,4.70
2018-02-13T18:46:31.054Z,5.20
2018-02-13T18:49:02.665Z,4.90
2018-02-13T18:51:30.760Z,5.17
2018-02-13T18:53:58.867Z,4.70
2018-02-13T18:56:27.735Z,5.33
2018-02-13T18:58:55.839Z,4.40
2018-02-13T19:01:24.700Z,6.17
2018-02-13T19:03:52.820Z,4.60
2018-02-13T19:06:20.936Z,7.50
2018-02-13T19:08:49.035Z,4.80
2018-02-13T19:11:18.260Z,4.80
2018-02-13T19:13:46.350Z,4.87
2018-02-13T19:16:14.487Z,4.20
2018-02-13T19:18:42.588Z,4.30
2018-02-13T19:21:10.725Z,9.07
2018-02-13T19:23:39.808Z,7.27
2018-02-13T19:26:07.891Z,5.20
2018-02-13T19:28:36.163Z,5.30
2018-02-13T19:31:05.023Z,4.10
2018-02-13T19:33:33.194Z,3.87
2018-02-13T19:36:01.307Z,4.70
2018-02-13T19:38:30.166Z,5.70
2018-02-13T19:40:58.496Z,4.57
2018-02-13T19:43:26.587Z,5.50
2018-02-13T19:45:54.690Z,6.23
2018-02-13T19:48:22.817Z,4.80
2018-02-13T19:50:50.910Z,5.10
2018-02-13T19:53:19.033Z,4.53
2018-02-13T19:55:47.153Z,5.53
2018-02-13T19:58:15.245Z,5.63
2018-02-13T20:00:43.367Z,4.60
2018-02-13T20:03:11.476Z,5.17
2018-02-13T20:05:39.632Z,5.13
2018-02-13T20:08:07.739Z,4.87
2018-02-13T20:10:35.865Z,4.00
2018-02-13T20:13:04.001Z,4.80
2018-02-13T20:15:32.111Z,4.20
2018-02-13T20:18:00.206Z,5.80
2018-02-13T20:20:28.325Z,5.00
2018-02-13T20:22:57.202Z,8.00
2018-02-13T20:25:25.395Z,8.50
2018-02-13T20:27:53.581Z,5.83
2018-02-13T20:30:21.664Z,4.53
2018-02-13T20:32:53.370Z,4.50
2018-02-13T20:35:21.500Z,3.77
2018-02-13T20:37:50.685Z,4.50
2018-02-13T20:40:19.559Z,5.03
2018-02-13T20:42:48.403Z,4.63
2018-02-13T20:45:16.518Z,4.37
2018-02-13T20:47:44.614Z,4.47
2018-02-13T20:50:12.719Z,4.60
2018-02-13T20:52:40.808Z,5.23
2018-02-13T20:55:08.926Z,4.90
2018-02-13T20:57:37.783Z,13.63
2018-02-13T21:00:05.889Z,13.10
2018-02-13T21:02:33.976Z,8.07
2018-02-13T21:05:02.076Z,4.20
2018-02-13T21:07:30.152Z,4.60
2018-02-13T21:09:58.270Z,10.60
2018-02-13T21:12:27.104Z,7.43
2018-02-13T21:14:55.255Z,4.97
2018-02-13T21:17:23.367Z,4.00
2018-02-13T21:19:51.461Z,4.87
2018-02-13T21:22:20.458Z,5.07
2018-02-13T21:24:50.518Z,4.17
2018-02-13T21:27:18.626Z,4.60
2018-02-13T21:29:46.760Z,4.30
2018-02-13T21:32:14.846Z,4.40
2018-02-13T21:34:42.941Z,4.03
2018-02-13T21:37:11.049Z,3.90
2018-02-13T21:39:39.176Z,4.07
2018-02-13T21:42:08.296Z,4.10
2018-02-13T21:44:36.392Z,3.93
2018-02-13T21:47:04.511Z,17.67
2018-02-13T21:49:32.669Z,14.77
2018-02-13T21:52:00.772Z,5.50
2018-02-13T21:54:28.872Z,4.10
2018-02-13T21:56:56.988Z,4.13
2018-02-13T21:59:25.081Z,3.87
2018-02-13T22:01:53.224Z,3.97
2018-02-13T22:04:21.329Z,4.40
2018-02-13T22:06:49.502Z,3.63
2018-02-13T22:09:17.617Z,4.30
2018-02-13T22:11:46.507Z,3.83
2018-02-13T22:14:15.412Z,4.13
2018-02-13T22:16:44.284Z,4.20
2018-02-13T22:19:12.777Z,4.30
2018-02-13T22:21:41.685Z,4.10
2018-02-13T22:24:10.533Z,3.90
2018-02-13T22:26:38.644Z,4.37
2018-02-13T22:29:06.744Z,3.60
2018-02-13T22:31:34.859Z,4.23
2018-02-13T22:34:02.962Z,4.50
2018-02-13T22:36:31.090Z,3.97
2018-02-13T22:38:59.193Z,4.17
2018-02-13T22:41:28.077Z,4.23
2018-02-13T22:43:56.946Z,3.90
2018-02-13T22:46:25.049Z,3.93
2018-02-13T22:48:53.896Z,3.80
2018-02-13T22:51:22.009Z,5.00
2018-02-13T22:53:50.898Z,4.33
2018-02-13T22:56:19.778Z,4.37
2018-02-13T22:58:47.873Z,3.87
2018-02-13T23:01:15.985Z,4.40
2018-02-13T23:03:44.084Z,4.20
2018-02-13T23:06:12.225Z,4.10
2018-02-13T23:08:40.335Z,4.30
2018-02-13T23:11:08.464Z,4.47
2018-02-13T23:13:36.569Z,3.83
2018-02-13T23:16:04.683Z,4.10
2018-02-13T23:18:33.169Z,4.17
2018-02-13T23:21:01.302Z,4.50
2018-02-13T23:23:29.400Z,3.77
2018-02-13T23:25:57.512Z,4.07
2018-02-13T23:28:25.611Z,3.60
2018-02-13T23:30:53.754Z,4.50
2018-02-13T23:33:21.923Z,4.50
2018-02-13T23:35:50.067Z,4.23
2018-02-13T23:38:18.960Z,4.23
2018-02-13T23:40:47.864Z,4.23
2018-02-13T23:43:15.955Z,4.73
2018-02-13T23:45:44.052Z,4.50
2018-02-13T23:48:12.151Z,4.67
2018-02-13T23:50:40.248Z,5.17
2018-02-13T23:53:08.356Z,4.40
2018-02-13T23:55:36.428Z,4.73
2018-02-13T23:58:04.543Z,4.53
